Time;durP1;ratioP1;P1;durP2;ratioP2;P2;SDS_P1;SDS_P2;PMS_P1;PMS_P2;Temp;Humidity;BMP_temperature;BMP_pressure;BME280_temperature;BME280_humidity;BME280_pressure;Samples;Min_cycle;Max_cycle;Signal;HPM_P1;HPM_P2
2022/11/22 00:00:55;;;;;;;23.60;13.93;;;1.60;99.90;;;;;;5091887;28;20525;-52
2022/11/22 00:03:20;;;;;;;25.63;14.25;;;1.70;99.90;;;;;;5091918;28;20091;-51
2022/11/22 00:05:46;;;;;;;28.42;14.68;;;1.60;99.90;;;;;;5091739;28;20032;-53
2022/11/22 00:08:12;;;;;;;17.00;14.25;;;1.60;99.90;;;;;;5091802;28;20102;-51
2022/11/22 00:10:37;;;;;;;26.95;14.40;;;1.60;99.90;;;;;;5091560;28;20024;-51
2022/11/22 00:13:03;;;;;;;17.25;14.95;;;1.60;99.90;;;;;;5091857;28;20073;-51
2022/11/22 00:15:29;;;;;;;26.67;15.10;;;1.60;99.90;;;;;;5091799;28;20595;-53
2022/11/22 00:17:55;;;;;;;19.05;14.10;;;1.60;99.90;;;;;;5091714;28;20429;-55
2022/11/22 00:20:21;;;;;;;20.40;14.93;;;1.60;99.90;;;;;;5091429;28;20052;-54
2022/11/22 00:22:47;;;;;;;20.27;14.18;;;1.60;99.90;;;;;;5091382;28;20085;-53
2022/11/22 00:25:13;;;;;;;34.90;14.70;;;1.70;99.90;;;;;;5091649;28;20036;-55
2022/11/22 00:27:39;;;;;;;19.60;14.73;;;1.70;99.90;;;;;;5091454;28;20023;-50
2022/11/22 00:30:06;;;;;;;18.70;14.05;;;1.70;99.90;;;;;;5091484;28;20052;-52
2022/11/22 00:32:32;;;;;;;22.27;14.52;;;1.60;99.90;;;;;;5091355;28;20429;-55
2022/11/22 00:34:58;;;;;;;20.42;13.73;;;1.70;99.90;;;;;;5091586;28;20024;-54
2022/11/22 00:37:23;;;;;;;17.88;14.00;;;1.70;99.90;;;;;;5091468;28;20028;-53
2022/11/22 00:39:49;;;;;;;20.13;14.05;;;1.70;99.90;;;;;;5091423;28;20106;-51
2022/11/22 00:42:15;;;;;;;20.25;13.93;;;1.70;99.90;;;;;;5091524;28;20106;-54
2022/11/22 00:44:40;;;;;;;17.70;14.23;;;1.70;99.90;;;;;;5091527;28;20136;-51
2022/11/22 00:47:06;;;;;;;14.75;13.20;;;1.60;99.90;;;;;;5095532;28;20370;-53
2022/11/22 00:49:31;;;;;;;18.27;14.48;;;1.70;99.90;;;;;;5094118;28;20118;-53
2022/11/22 00:51:57;;;;;;;19.17;14.80;;;1.70;99.90;;;;;;5095385;28;20115;-52
2022/11/22 00:54:23;;;;;;;16.27;12.50;;;1.70;99.90;;;;;;5093961;28;20024;-53
2022/11/22 00:56:48;;;;;;;17.73;13.55;;;1.60;99.90;;;;;;5095341;28;20033;-54
2022/11/22 00:59:14;;;;;;;17.90;14.05;;;1.70;99.90;;;;;;5093957;28;20023;-54
2022/11/22 01:01:40;;;;;;;17.27;13.88;;;1.60;99.90;;;;;;5095010;28;20077;-53
2022/11/22 01:04:05;;;;;;;18.13;13.63;;;1.60;99.90;;;;;;5095230;28;20024;-53
2022/11/22 01:06:31;;;;;;;19.10;15.60;;;1.60;99.90;;;;;;5093798;28;20036;-55
2022/11/22 01:08:57;;;;;;;18.80;14.38;;;1.60;99.90;;;;;;5095107;28;20024;-54
2022/11/22 01:11:22;;;;;;;20.60;15.65;;;1.50;99.90;;;;;;5094963;28;20038;-53
2022/11/22 01:13:48;;;;;;;20.63;15.00;;;1.50;99.90;;;;;;5094873;28;20537;-52
2022/11/22 01:16:14;;;;;;;20.42;15.23;;;1.50;99.90;;;;;;5093583;28;20145;-54
2022/11/22 01:18:40;;;;;;;20.90;15.68;;;1.50;99.90;;;;;;5094512;28;20040;-53
2022/11/22 01:21:06;;;;;;;24.35;16.02;;;1.60;99.90;;;;;;5094841;28;20479;-54
2022/11/22 01:23:33;;;;;;;18.55;13.57;;;1.50;99.90;;;;;;5094628;28;20016;-53
2022/11/22 01:25:59;;;;;;;18.95;14.73;;;1.50;99.90;;;;;;5094595;28;20023;-55
2022/11/22 01:28:25;;;;;;;20.98;14.75;;;1.50;99.90;;;;;;5094472;28;20035;-54
2022/11/22 01:30:52;;;;;;;17.85;14.20;;;1.50;99.90;;;;;;5094175;28;20040;-52
2022/11/22 01:33:18;;;;;;;20.00;15.45;;;1.50;99.90;;;;;;5094672;28;20024;-55
2022/11/22 01:35:43;;;;;;;21.20;14.35;;;1.50;99.90;;;;;;5094529;28;20359;-51
2022/11/22 01:38:09;;;;;;;17.33;13.95;;;1.40;99.90;;;;;;5094714;28;20016;-54
2022/11/22 01:40:35;;;;;;;19.17;14.23;;;1.40;99.90;;;;;;5094372;28;20020;-55
2022/11/22 01:43:02;;;;;;;15.75;12.52;;;1.30;99.90;;;;;;5094427;28;20036;-52
2022/11/22 01:45:31;;;;;;;15.40;12.65;;;1.20;99.90;;;;;;5094349;28;20022;-55
2022/11/22 01:48:12;;;;;;;15.65;12.57;;;1.10;99.90;;;;;;5094144;28;20543;-52
2022/11/22 01:50:41;;;;;;;17.80;12.45;;;1.00;99.90;;;;;;5093919;28;20489;-52
2022/11/22 01:53:16;;;;;;;15.70;12.35;;;0.90;99.90;;;;;;5094441;28;20044;-55
2022/11/22 01:55:42;;;;;;;31.85;14.40;;;0.80;99.90;;;;;;5093266;28;20020;-56
2022/11/22 01:58:09;;;;;;;36.45;12.75;;;0.70;99.90;;;;;;5094295;28;20027;-51
2022/11/22 02:00:37;;;;;;;13.35;11.85;;;0.60;99.90;;;;;;5094056;28;20016;-54
2022/11/22 02:03:05;;;;;;;19.40;13.43;;;0.50;99.90;;;;;;5092795;28;20123;-51
2022/11/22 02:05:33;;;;;;;44.28;13.57;;;0.50;99.90;;;;;;5094076;28;20032;-51
2022/11/22 02:08:02;;;;;;;82.82;14.20;;;0.50;99.90;;;;;;5093776;28;20035;-51
2022/11/22 02:10:30;;;;;;;66.97;12.82;;;0.40;99.90;;;;;;5094052;28;20063;-52
2022/11/22 02:12:58;;;;;;;29.85;11.55;;;0.40;99.90;;;;;;5093896;28;20106;-50
2022/11/22 02:15:24;;;;;;;109.07;11.40;;;0.40;99.90;;;;;;5093920;28;20040;-51
2022/11/22 02:17:50;;;;;;;77.65;11.32;;;0.40;99.90;;;;;;5093662;28;20070;-52
2022/11/22 02:20:16;;;;;;;43.97;11.30;;;0.40;99.90;;;;;;5093645;28;20082;-51
2022/11/22 02:22:53;;;;;;;16.88;10.02;;;0.40;99.90;;;;;;5093814;28;20379;-54
2022/11/22 02:25:40;;;;;;;23.15;9.98;;;0.40;99.90;;;;;;5093638;28;20077;-51
2022/11/22 02:28:09;;;;;;;12.18;9.52;;;0.40;99.90;;;;;;5093299;28;20031;-52
2022/11/22 02:30:39;;;;;;;13.50;10.52;;;0.50;99.90;;;;;;5093437;28;20040;-54
2022/11/22 02:33:05;;;;;;;12.75;9.73;;;0.60;99.90;;;;;;5093579;28;20085;-53
2022/11/22 02:35:31;;;;;;;11.93;10.23;;;0.60;99.90;;;;;;5093508;28;20027;-51
2022/11/22 02:38:03;;;;;;;119.03;12.73;;;0.60;99.90;;;;;;5093094;28;20366;-52
2022/11/22 02:40:44;;;;;;;55.53;10.70;;;0.60;99.90;;;;;;5093496;28;20058;-52
2022/11/22 02:43:17;;;;;;;32.50;12.25;;;0.50;99.90;;;;;;5093361;28;20035;-54
2022/11/22 02:45:42;;;;;;;26.23;11.45;;;0.60;99.90;;;;;;5091772;28;20123;-52
2022/11/22 02:48:11;;;;;;;51.08;13.15;;;0.60;99.90;;;;;;5093295;28;20119;-51
2022/11/22 02:50:37;;;;;;;86.38;14.55;;;0.60;99.90;;;;;;5092920;28;20042;-51
2022/11/22 02:53:03;;;;;;;80.45;16.42;;;0.60;99.90;;;;;;5091960;28;20025;-50
2022/11/22 02:55:29;;;;;;;142.45;18.08;;;0.70;99.90;;;;;;5092905;28;20052;-52
2022/11/22 02:57:55;;;;;;;61.40;21.17;;;0.70;99.90;;;;;;5093236;28;20119;-52
2022/11/22 03:00:21;;;;;;;136.40;25.45;;;0.70;99.90;;;;;;5093008;28;20024;-52
2022/11/22 03:02:46;;;;;;;370.00;28.10;;;0.80;99.90;;;;;;5092914;28;20638;-51
2022/11/22 03:05:12;;;;;;;263.42;24.35;;;0.70;99.90;;;;;;5092697;28;20028;-51
2022/11/22 03:07:38;;;;;;;182.70;20.33;;;0.80;99.90;;;;;;5092621;28;20031;-52
2022/11/22 03:10:03;;;;;;;82.47;17.80;;;0.80;99.90;;;;;;5092811;28;20028;-54
2022/11/22 03:12:29;;;;;;;100.55;21.95;;;0.80;99.90;;;;;;5092705;28;20024;-54
2022/11/22 03:14:55;;;;;;;294.67;25.25;;;0.90;99.90;;;;;;5092564;28;20026;-55
2022/11/22 03:17:20;;;;;;;265.30;25.85;;;0.80;99.90;;;;;;5092801;28;20085;-54
2022/11/22 03:19:46;;;;;;;71.03;21.20;;;0.80;99.90;;;;;;5092565;28;20051;-54
2022/11/22 03:22:12;;;;;;;45.15;16.80;;;0.90;99.90;;;;;;5092760;28;20024;-54
2022/11/22 03:24:38;;;;;;;91.90;20.38;;;0.90;99.90;;;;;;5092295;28;20063;-51
2022/11/22 03:27:04;;;;;;;48.10;15.85;;;0.90;99.90;;;;;;5092607;28;20081;-55
2022/11/22 03:29:29;;;;;;;24.83;13.88;;;0.90;99.90;;;;;;5092244;28;20020;-54
2022/11/22 03:31:55;;;;;;;18.17;13.65;;;0.90;99.90;;;;;;5072677;28;20363;-54
2022/11/22 03:34:21;;;;;;;19.45;13.43;;;0.90;99.90;;;;;;5072238;28;20082;-53
2022/11/22 03:36:46;;;;;;;22.40;14.23;;;1.00;99.90;;;;;;5071967;28;20056;-52
2022/11/22 03:39:12;;;;;;;38.35;14.18;;;1.00;99.90;;;;;;5072108;28;20020;-52
2022/11/22 03:41:38;;;;;;;29.08;13.30;;;1.00;99.90;;;;;;5071760;28;20029;-54
2022/11/22 03:44:03;;;;;;;26.17;13.85;;;1.00;99.90;;;;;;5071986;28;20032;-51
2022/11/22 03:46:29;;;;;;;17.92;14.05;;;1.00;99.90;;;;;;5072014;28;20020;-52
2022/11/22 03:48:55;;;;;;;17.13;14.18;;;1.00;99.90;;;;;;5071801;28;20032;-52
2022/11/22 03:51:20;;;;;;;17.90;14.55;;;1.10;99.90;;;;;;5071820;28;20682;-54
2022/11/22 03:53:46;;;;;;;15.70;12.57;;;1.00;99.90;;;;;;5071632;28;20099;-54
2022/11/22 03:56:12;;;;;;;18.88;13.77;;;1.10;99.90;;;;;;5071907;28;20047;-52
2022/11/22 03:58:37;;;;;;;22.80;14.27;;;1.10;99.90;;;;;;5071523;28;20065;-53
2022/11/22 04:01:03;;;;;;;18.23;12.98;;;1.20;99.90;;;;;;5071830;28;20036;-52
2022/11/22 04:03:29;;;;;;;23.35;13.80;;;1.10;99.90;;;;;;5071698;28;20035;-54
2022/11/22 04:05:55;;;;;;;39.72;14.00;;;1.10;99.90;;;;;;5071620;28;20791;-53
2022/11/22 04:08:21;;;;;;;21.92;12.93;;;1.10;99.90;;;;;;5071667;28;20116;-52
2022/11/22 04:10:50;;;;;;;20.25;14.82;;;1.10;99.90;;;;;;5071211;28;20082;-52
2022/11/22 04:13:17;;;;;;;25.02;13.75;;;1.10;99.90;;;;;;5071582;28;20049;-53
2022/11/22 04:15:42;;;;;;;19.45;14.13;;;1.20;99.90;;;;;;5071356;28;20021;-51
2022/11/22 04:18:09;;;;;;;24.10;13.98;;;1.20;99.90;;;;;;5071660;28;20372;-54
2022/11/22 04:23:21;;;;;;;16.23;12.65;;;1.20;99.90;;;;;;5071448;28;20150;-54
2022/11/22 04:25:52;;;;;;;18.05;14.90;;;1.20;99.90;;;;;;5071267;28;20028;-51
2022/11/22 04:28:20;;;;;;;21.42;14.00;;;1.10;99.90;;;;;;5071375;28;20024;-52
2022/11/22 04:33:32;;;;;;;23.83;16.23;;;1.10;99.90;;;;;;5071600;28;20530;-52
2022/11/22 04:35:57;;;;;;;21.92;15.27;;;1.10;99.90;;;;;;5071290;28;20025;-51
2022/11/22 04:38:24;;;;;;;25.08;17.10;;;1.00;99.90;;;;;;5071323;28;20037;-52
2022/11/22 04:40:50;;;;;;;18.05;13.93;;;1.10;99.90;;;;;;5071099;28;20482;-53
2022/11/22 04:46:09;;;;;;;22.33;13.68;;;1.00;99.90;;;;;;5071584;28;20089;-51
2022/11/22 04:48:35;;;;;;;24.48;14.30;;;1.10;99.90;;;;;;5069793;28;20017;-55
2022/11/22 04:53:46;;;;;;;28.58;14.90;;;1.20;99.90;;;;;;5071240;28;20086;-54
2022/11/22 04:56:12;;;;;;;30.42;16.73;;;1.20;99.90;;;;;;5071240;28;20029;-52
2022/11/22 04:58:38;;;;;;;26.08;16.92;;;1.20;99.90;;;;;;5070873;28;20020;-52
2022/11/22 05:01:04;;;;;;;22.90;15.13;;;1.30;99.90;;;;;;5071228;28;20039;-52
2022/11/22 05:03:29;;;;;;;18.33;14.55;;;1.30;99.90;;;;;;5071222;28;20035;-51
2022/11/22 05:05:55;;;;;;;18.85;14.52;;;1.30;99.90;;;;;;5070960;28;20130;-51
2022/11/22 05:08:21;;;;;;;18.15;14.80;;;1.30;99.90;;;;;;5071207;28;20066;-51
2022/11/22 05:10:56;;;;;;;16.80;13.85;;;1.30;99.90;;;;;;5070798;28;20028;-52
2022/11/22 05:13:42;;;;;;;18.77;13.88;;;1.20;99.90;;;;;;5071003;28;20377;-53
2022/11/22 05:16:11;;;;;;;18.77;14.30;;;1.30;99.90;;;;;;5070796;28;20396;-51
2022/11/22 05:18:37;;;;;;;19.90;14.57;;;1.30;99.90;;;;;;5070664;28;20021;-53
2022/11/22 05:21:10;;;;;;;21.02;14.05;;;1.20;99.90;;;;;;5069688;28;20024;-51
2022/11/22 05:23:54;;;;;;;18.08;14.02;;;1.20;99.90;;;;;;5070837;28;20028;-52
2022/11/22 05:26:20;;;;;;;17.08;13.75;;;1.20;99.90;;;;;;5070939;28;20032;-52
2022/11/22 05:28:46;;;;;;;18.67;14.60;;;1.20;99.90;;;;;;5070795;28;20029;-55
2022/11/22 05:31:15;;;;;;;16.60;13.27;;;1.30;99.90;;;;;;5071491;28;20093;-56
2022/11/22 05:33:44;;;;;;;20.05;14.48;;;1.20;99.90;;;;;;5074261;28;20017;-53
2022/11/22 05:36:10;;;;;;;17.25;14.00;;;1.30;99.90;;;;;;5072940;28;20031;-55
2022/11/22 05:38:37;;;;;;;19.25;15.15;;;1.30;99.90;;;;;;5072741;28;20021;-53
2022/11/22 05:41:06;;;;;;;20.10;14.75;;;1.30;99.90;;;;;;5074027;28;20036;-52
2022/11/22 05:43:32;;;;;;;17.08;13.90;;;1.40;99.90;;;;;;5074363;28;20035;-55
2022/11/22 05:46:14;;;;;;;17.85;14.52;;;1.40;99.90;;;;;;5073755;28;20139;-51
2022/11/22 05:48:42;;;;;;;18.60;14.90;;;1.40;99.90;;;;;;5073861;28;20110;-51
2022/11/22 05:51:10;;;;;;;20.17;16.70;;;1.40;99.90;;;;;;5074114;28;20020;-51
2022/11/22 05:53:36;;;;;;;18.80;15.10;;;1.50;99.90;;;;;;5073871;28;20017;-52
2022/11/22 05:56:06;;;;;;;16.35;13.07;;;1.50;99.90;;;;;;5074157;28;20028;-50
2022/11/22 05:58:33;;;;;;;20.70;13.63;;;1.60;99.90;;;;;;5072798;28;20039;-52
2022/11/22 06:01:10;;;;;;;15.82;13.80;;;1.60;99.90;;;;;;5072266;28;20024;-51
2022/11/22 06:03:36;;;;;;;15.93;13.20;;;1.70;99.90;;;;;;5072323;28;20563;-51
2022/11/22 06:06:04;;;;;;;17.52;14.68;;;1.70;99.90;;;;;;5072854;28;20024;-51
2022/11/22 06:08:31;;;;;;;17.65;14.07;;;1.60;99.90;;;;;;5072627;28;20028;-53
2022/11/22 06:11:04;;;;;;;20.73;15.68;;;1.60;99.90;;;;;;5072154;28;20028;-50
2022/11/22 06:13:33;;;;;;;17.55;14.45;;;1.60;99.90;;;;;;5072531;28;20365;-50
2022/11/22 06:15:59;;;;;;;16.58;12.93;;;1.70;99.90;;;;;;5071980;28;20028;-54
2022/11/22 06:18:25;;;;;;;16.63;12.95;;;1.70;99.90;;;;;;5072470;28;20099;-49
2022/11/22 06:20:51;;;;;;;16.77;14.07;;;1.70;99.90;;;;;;5072083;28;20166;-55
2022/11/22 06:23:17;;;;;;;17.30;14.52;;;1.70;99.90;;;;;;5072083;28;20028;-51
2022/11/22 06:25:42;;;;;;;18.92;14.43;;;1.70;99.90;;;;;;5072420;28;20029;-53
2022/11/22 06:28:08;;;;;;;21.45;15.52;;;1.70;99.90;;;;;;5072072;28;20027;-54
2022/11/22 06:30:34;;;;;;;20.33;14.80;;;1.70;99.90;;;;;;5072042;28;20029;-52
2022/11/22 06:32:59;;;;;;;17.33;14.05;;;1.70;99.90;;;;;;5072226;28;20084;-54
2022/11/22 06:35:25;;;;;;;17.85;13.48;;;1.80;99.90;;;;;;5071984;28;20066;-52
2022/11/22 06:37:50;;;;;;;23.38;15.77;;;1.80;99.90;;;;;;5071763;28;20530;-51
2022/11/22 06:40:17;;;;;;;20.10;14.88;;;1.90;99.90;;;;;;5070788;28;20044;-50
2022/11/22 06:42:43;;;;;;;18.90;15.02;;;2.00;99.90;;;;;;5070006;28;20085;-51
2022/11/22 06:45:09;;;;;;;33.55;21.05;;;2.00;99.90;;;;;;5071783;28;20024;-51
2022/11/22 06:47:35;;;;;;;21.65;16.33;;;1.90;99.90;;;;;;5071939;28;20556;-52
2022/11/22 06:50:00;;;;;;;16.73;14.20;;;1.90;99.90;;;;;;5071208;28;20033;-52
2022/11/22 06:52:26;;;;;;;24.33;18.55;;;1.90;99.90;;;;;;5071780;28;20317;-52
2022/11/22 06:54:52;;;;;;;216.23;99.07;;;1.90;99.90;;;;;;5071453;28;20028;-52
2022/11/22 06:57:19;;;;;;;34.60;24.75;;;1.90;99.90;;;;;;5071544;28;20024;-51
2022/11/22 06:59:44;;;;;;;27.60;15.27;;;2.00;99.90;;;;;;5070068;28;20027;-50
2022/11/22 07:02:11;;;;;;;18.05;14.25;;;2.00;99.90;;;;;;5071720;28;20103;-50
2022/11/22 07:04:36;;;;;;;16.17;12.63;;;2.10;99.90;;;;;;5071387;28;20028;-52
2022/11/22 07:07:02;;;;;;;17.33;13.80;;;2.10;99.90;;;;;;5071640;28;20380;-54
2022/11/22 07:09:28;;;;;;;16.55;12.88;;;2.10;99.90;;;;;;5071320;28;20036;-50
2022/11/22 07:11:53;;;;;;;19.40;16.80;;;2.10;99.90;;;;;;5071010;28;20063;-49
2022/11/22 07:14:19;;;;;;;18.58;16.15;;;2.20;99.90;;;;;;5071371;28;20479;-50
2022/11/22 07:16:44;;;;;;;27.27;20.90;;;2.20;99.90;;;;;;5069818;28;20476;-51
2022/11/22 07:19:10;;;;;;;19.33;14.50;;;2.20;99.90;;;;;;5071066;28;20067;-50
2022/11/22 07:21:36;;;;;;;15.18;12.10;;;2.30;99.90;;;;;;5071146;28;20078;-52
2022/11/22 07:24:03;;;;;;;14.55;12.80;;;2.40;99.90;;;;;;5071210;28;20081;-51
2022/11/22 07:26:29;;;;;;;15.32;12.82;;;2.40;99.90;;;;;;5071007;28;20020;-49
2022/11/22 07:28:55;;;;;;;17.55;10.63;;;2.50;99.90;;;;;;5070829;28;20032;-52
2022/11/22 07:31:21;;;;;;;15.02;12.88;;;2.60;99.90;;;;;;5070874;28;20123;-53
2022/11/22 07:33:47;;;;;;;16.33;12.48;;;2.60;99.90;;;;;;5070443;28;20095;-49
2022/11/22 07:36:18;;;;;;;14.30;11.50;;;2.60;99.90;;;;;;5069455;28;20016;-51
2022/11/22 07:38:44;;;;;;;15.95;11.98;;;2.70;99.90;;;;;;5070672;28;20021;-50
2022/11/22 07:41:10;;;;;;;20.73;14.25;;;2.70;99.90;;;;;;5069542;28;20487;-51
2022/11/22 07:43:36;;;;;;;19.15;13.13;;;2.60;99.90;;;;;;5070764;28;20480;-52
2022/11/22 07:46:03;;;;;;;51.53;27.15;;;2.60;99.90;;;;;;5070601;28;20047;-51
2022/11/22 07:48:29;;;;;;;21.20;14.85;;;2.70;99.90;;;;;;5070791;28;20031;-50
2022/11/22 07:50:55;;;;;;;17.75;13.07;;;2.70;99.90;;;;;;5070355;28;20143;-50
2022/11/22 07:53:20;;;;;;;15.98;13.45;;;2.80;99.90;;;;;;5070300;28;20024;-51
2022/11/22 07:55:46;;;;;;;24.20;17.95;;;2.80;99.90;;;;;;5069902;28;20031;-51
2022/11/22 07:58:12;;;;;;;15.82;11.93;;;2.90;99.90;;;;;;5069476;28;20352;-51
2022/11/22 08:00:38;;;;;;;14.52;11.55;;;3.00;99.90;;;;;;5070396;28;20031;-49
2022/11/22 08:03:05;;;;;;;15.52;10.98;;;3.10;99.90;;;;;;5070424;28;20502;-52
2022/11/22 08:05:31;;;;;;;21.10;10.73;;;3.20;99.90;;;;;;5070446;28;20111;-53
2022/11/22 08:07:56;;;;;;;12.93;11.27;;;3.30;99.90;;;;;;5070242;28;20171;-51
2022/11/22 08:10:22;;;;;;;14.98;11.38;;;3.40;99.90;;;;;;5068961;28;20111;-51
2022/11/22 08:12:48;;;;;;;13.40;11.90;;;3.30;99.90;;;;;;5070219;28;20087;-50
2022/11/22 08:15:15;;;;;;;17.00;13.20;;;3.30;99.90;;;;;;5070310;28;20023;-52
2022/11/22 08:17:41;;;;;;;18.73;14.35;;;3.30;99.90;;;;;;5070262;28;20043;-51
2022/11/22 08:20:08;;;;;;;15.50;12.18;;;3.40;99.90;;;;;;5070096;28;20563;-52
2022/11/22 08:22:35;;;;;;;13.50;11.57;;;3.50;99.90;;;;;;5070206;28;20396;-50
2022/11/22 08:25:01;;;;;;;13.23;10.25;;;3.50;99.90;;;;;;5070444;28;20490;-51
2022/11/22 08:27:26;;;;;;;11.90;9.77;;;3.60;99.90;;;;;;5070165;28;20066;-50
2022/11/22 08:29:52;;;;;;;11.25;10.02;;;3.70;99.90;;;;;;5069992;28;20035;-52
2022/11/22 08:32:18;;;;;;;13.10;10.43;;;3.60;99.90;;;;;;5070329;28;20025;-50
2022/11/22 08:34:43;;;;;;;12.88;10.55;;;3.70;99.90;;;;;;5069885;28;20226;-50
2022/11/22 08:37:09;;;;;;;12.90;11.30;;;3.70;99.90;;;;;;5070204;28;20043;-52
2022/11/22 08:39:34;;;;;;;13.73;11.07;;;3.70;99.90;;;;;;5069928;28;20523;-53
2022/11/22 08:42:00;;;;;;;13.07;10.93;;;3.70;99.90;;;;;;5068733;28;20031;-49
2022/11/22 08:44:26;;;;;;;17.00;10.65;;;3.70;99.90;;;;;;5070104;28;20029;-50
2022/11/22 08:46:51;;;;;;;13.45;11.60;;;3.70;99.90;;;;;;5069918;28;20107;-50
2022/11/22 08:49:17;;;;;;;12.50;11.20;;;3.70;99.90;;;;;;5069856;28;20078;-51
2022/11/22 08:51:44;;;;;;;13.55;10.93;;;3.70;99.90;;;;;;5069880;28;20107;-50
2022/11/22 08:54:13;;;;;;;20.90;14.82;;;3.70;99.90;;;;;;5068530;28;20021;-49
2022/11/22 08:56:39;;;;;;;12.40;10.52;;;3.70;99.90;;;;;;5069666;28;20025;-49
2022/11/22 08:59:06;;;;;;;12.10;10.18;;;3.80;99.90;;;;;;5070046;28;20078;-51
2022/11/22 09:01:31;;;;;;;13.80;10.93;;;3.80;99.90;;;;;;5069798;28;20085;-50
2022/11/22 09:03:57;;;;;;;14.77;11.07;;;3.90;99.90;;;;;;5069594;28;20028;-50
2022/11/22 09:06:23;;;;;;;11.75;10.55;;;3.90;99.90;;;;;;5071290;28;20030;-49
2022/11/22 09:08:48;;;;;;;15.65;11.98;;;3.80;99.90;;;;;;5073394;28;20475;-50
2022/11/22 09:11:16;;;;;;;16.95;12.57;;;3.80;99.90;;;;;;5073630;28;20028;-53
2022/11/22 09:13:42;;;;;;;17.30;12.63;;;3.70;99.90;;;;;;5073634;28;20035;-50
2022/11/22 09:16:11;;;;;;;15.02;11.73;;;3.80;99.90;;;;;;5073436;28;20025;-52
2022/11/22 09:18:37;;;;;;;21.30;12.43;;;3.70;99.90;;;;;;5073335;28;20284;-50
2022/11/22 09:21:05;;;;;;;20.58;14.13;;;3.80;99.90;;;;;;5072083;28;20082;-50
2022/11/22 09:23:31;;;;;;;18.30;14.90;;;3.70;99.90;;;;;;5073431;28;20035;-51
2022/11/22 09:25:58;;;;;;;32.08;19.02;;;3.80;99.90;;;;;;5073457;28;20028;-50
2022/11/22 09:28:25;;;;;;;37.72;21.98;;;3.90;99.90;;;;;;5071902;28;20024;-50
2022/11/22 09:30:58;;;;;;;173.88;70.40;;;3.90;99.90;;;;;;5072880;28;20032;-50
2022/11/22 09:33:23;;;;;;;199.23;67.18;;;3.90;99.90;;;;;;5073161;28;20103;-51
2022/11/22 09:35:49;;;;;;;84.45;34.05;;;4.00;99.90;;;;;;5072885;28;20119;-50
2022/11/22 09:38:15;;;;;;;115.90;45.88;;;4.00;99.90;;;;;;5073126;28;20052;-50
2022/11/22 09:40:47;;;;;;;89.35;47.70;;;4.00;99.90;;;;;;5073293;28;20511;-53
2022/11/22 09:43:18;;;;;;;36.70;20.03;;;4.20;99.90;;;;;;5073005;28;20067;-49
2022/11/22 09:46:01;;;;;;;23.00;16.20;;;4.40;99.90;;;;;;5071515;28;20610;-52
2022/11/22 09:48:35;;;;;;;16.95;12.80;;;4.40;99.90;;;;;;5072955;28;20499;-49
2022/11/22 09:51:18;;;;;;;16.67;11.93;;;4.40;99.90;;;;;;5071449;28;20119;-50
2022/11/22 09:53:47;;;;;;;;;;;4.20;99.90;;;;;;5073377;28;20593;-49
2022/11/22 09:56:16;;;;;;;19.50;14.80;;;4.20;99.90;;;;;;5073299;28;20007;-50
2022/11/22 09:59:12;;;;;;;21.17;15.40;;;4.20;99.90;;;;;;5072707;28;20100;-51
2022/11/22 10:01:44;;;;;;;23.10;15.45;;;4.30;99.90;;;;;;5072025;28;20043;-52
2022/11/22 10:04:38;;;;;;;23.63;18.17;;;4.40;99.90;;;;;;5072726;28;20059;-50
2022/11/22 10:07:27;;;;;;;19.55;17.33;;;4.40;99.90;;;;;;5070982;28;20047;-51
2022/11/22 10:10:02;;;;;;;25.50;19.40;;;4.40;99.90;;;;;;5072325;28;20146;-51
2022/11/22 10:12:41;;;;;;;21.05;14.95;;;4.30;99.90;;;;;;5072659;28;20111;-50
2022/11/22 10:15:44;;;;;;;18.50;16.33;;;4.30;99.90;;;;;;5072459;28;20021;-51
2022/11/22 10:18:37;;;;;;;20.85;16.52;;;4.30;99.90;;;;;;5071620;28;20028;-50
2022/11/22 10:21:03;;;;;;;25.92;20.88;;;4.30;99.90;;;;;;5072216;28;20043;-49
2022/11/22 10:23:31;;;;;;;30.65;27.52;;;4.30;99.90;;;;;;5072382;28;20028;-50
2022/11/22 10:26:02;;;;;;;31.50;24.67;;;4.30;99.90;;;;;;5072239;28;20029;-53
2022/11/22 10:28:35;;;;;;;73.00;41.00;;;4.20;99.90;;;;;;5072167;28;20028;-50
2022/11/22 10:31:13;;;;;;;55.83;30.63;;;4.20;99.90;;;;;;5071839;28;20518;-51
2022/11/22 10:33:42;;;;;;;70.75;29.92;;;4.20;99.90;;;;;;5071684;28;20476;-52
2022/11/22 10:36:31;;;;;;;23.88;17.55;;;4.10;99.90;;;;;;5071683;28;20040;-52
2022/11/22 10:39:22;;;;;;;21.77;17.30;;;4.00;99.90;;;;;;5071528;28;20028;-51
2022/11/22 10:42:11;;;;;;;28.23;18.98;;;3.90;99.90;;;;;;5071768;28;20048;-52
2022/11/22 10:44:54;;;;;;;27.17;20.77;;;3.80;99.90;;;;;;5071622;28;20082;-52
2022/11/22 10:47:35;;;;;;;;;;;3.70;99.90;;;;;;5072432;28;20112;-50
2022/11/22 10:50:22;;;;;;;26.17;18.67;;;3.50;99.90;;;;;;5071609;28;20283;-51
2022/11/22 10:52:54;;;;;;;27.73;20.80;;;3.60;99.90;;;;;;5071483;28;20025;-49
2022/11/22 10:55:28;;;;;;;28.52;22.08;;;3.60;99.90;;;;;;5071910;28;20024;-50
2022/11/22 10:58:01;;;;;;;24.08;18.13;;;3.60;99.90;;;;;;5071387;28;20025;-50
2022/11/22 11:00:30;;;;;;;28.08;19.15;;;3.50;99.90;;;;;;5071674;28;20021;-50
2022/11/22 11:03:51;;;;;;;30.80;20.73;;;3.50;99.90;;;;;;5071327;28;20119;-51
2022/11/22 11:06:25;;;;;;;25.00;20.98;;;3.60;99.90;;;;;;5058327;28;20032;-52
2022/11/22 11:09:00;;;;;;;31.40;25.80;;;3.60;99.90;;;;;;5070324;28;20027;-52
2022/11/22 11:11:26;;;;;;;26.70;21.88;;;3.60;99.90;;;;;;5071259;28;20107;-51
2022/11/22 11:14:05;;;;;;;21.63;17.63;;;3.60;99.90;;;;;;5071083;28;20020;-52
2022/11/22 11:16:34;;;;;;;24.27;18.23;;;3.70;99.90;;;;;;5071239;28;20035;-51
2022/11/22 11:19:18;;;;;;;23.40;17.25;;;3.70;99.90;;;;;;5071192;28;20395;-50
2022/11/22 11:21:44;;;;;;;20.27;16.17;;;3.70;99.90;;;;;;5070954;28;20218;-52
2022/11/22 11:24:16;;;;;;;21.42;16.13;;;3.70;99.90;;;;;;5071178;28;20465;-50
2022/11/22 11:26:50;;;;;;;19.83;15.27;;;3.70;99.90;;;;;;5070965;28;20035;-50
2022/11/22 11:29:15;;;;;;;18.00;14.13;;;3.70;99.90;;;;;;5070250;28;20383;-50
2022/11/22 11:31:49;;;;;;;17.70;14.73;;;3.80;99.90;;;;;;5070695;28;20107;-50
2022/11/22 11:34:27;;;;;;;18.73;16.30;;;3.70;99.90;;;;;;5070920;28;20033;-51
2022/11/22 11:36:56;;;;;;;701.47;399.25;;;3.70;99.90;;;;;;5070745;28;20017;-53
2022/11/22 11:39:27;;;;;;;82.60;49.30;;;3.70;99.90;;;;;;5070935;28;20024;-50
2022/11/22 11:41:52;;;;;;;22.45;16.02;;;3.70;99.90;;;;;;5070526;28;20032;-51
2022/11/22 11:44:37;;;;;;;18.45;15.25;;;3.70;99.90;;;;;;5069521;28;20387;-52
2022/11/22 11:47:03;;;;;;;20.10;14.50;;;3.70;99.90;;;;;;5070537;28;20499;-51
2022/11/22 11:49:32;;;;;;;19.30;14.52;;;3.70;99.90;;;;;;5070784;28;20479;-51
2022/11/22 11:51:59;;;;;;;20.20;16.75;;;3.80;99.90;;;;;;5070585;28;20025;-51
2022/11/22 11:54:28;;;;;;;17.10;15.27;;;3.70;99.90;;;;;;5070710;28;20033;-49
2022/11/22 11:56:58;;;;;;;22.52;17.75;;;3.80;99.90;;;;;;5070394;28;20357;-51
2022/11/22 11:59:37;;;;;;;25.33;18.13;;;3.80;99.90;;;;;;5070420;28;20051;-50
2022/11/22 12:02:22;;;;;;;18.88;16.33;;;3.80;99.90;;;;;;5070522;28;20040;-50
2022/11/22 12:05:01;;;;;;;18.38;14.90;;;3.80;99.90;;;;;;5070348;28;20017;-51
2022/11/22 12:07:38;;;;;;;17.42;14.95;;;3.80;99.90;;;;;;5070382;28;20531;-50
2022/11/22 12:10:28;;;;;;;19.58;15.30;;;3.90;99.90;;;;;;5069117;28;20535;-52
2022/11/22 12:13:02;;;;;;;32.00;22.48;;;3.80;99.90;;;;;;5070279;28;20039;-51
2022/11/22 12:15:50;;;;;;;;;;;3.80;99.90;;;;;;5069543;28;20022;-53
2022/11/22 12:18:37;;;;;;;20.58;15.10;;;3.90;99.90;;;;;;5070382;28;20368;-52
2022/11/22 12:21:14;;;;;;;15.18;13.50;;;3.90;99.90;;;;;;5070530;28;20075;-50
2022/11/22 12:23:48;;;;;;;15.82;13.55;;;3.80;99.90;;;;;;5070203;28;20057;-54
2022/11/22 12:26:13;;;;;;;;;;;3.80;99.90;;;;;;5069468;28;20048;-51
2022/11/22 12:28:39;;;;;;;16.38;13.57;;;3.90;99.90;;;;;;5069996;28;19905;-53
2022/11/22 12:31:15;;;;;;;20.65;14.60;;;3.90;99.90;;;;;;5069902;28;20029;-51
2022/11/22 12:33:50;;;;;;;18.77;15.02;;;4.00;99.90;;;;;;5068802;28;20032;-50
2022/11/22 12:36:22;;;;;;;19.80;15.75;;;4.00;99.90;;;;;;5070110;28;20017;-51
2022/11/22 12:38:50;;;;;;;18.80;14.88;;;4.10;99.90;;;;;;5070160;28;20024;-50
2022/11/22 12:41:20;;;;;;;20.98;14.50;;;4.10;99.90;;;;;;5072499;28;20525;-51
2022/11/22 12:44:01;;;;;;;17.85;14.82;;;4.10;99.90;;;;;;5074082;28;20025;-51
2022/11/22 12:46:38;;;;;;;21.85;15.32;;;4.20;99.90;;;;;;5074225;28;20449;-52
2022/11/22 12:49:20;;;;;;;22.20;16.88;;;4.20;99.90;;;;;;5072826;28;20488;-52
2022/11/22 12:52:10;;;;;;;55.10;34.53;;;4.20;99.90;;;;;;5073761;28;20024;-52
2022/11/22 12:54:56;;;;;;;17.98;14.70;;;4.20;99.90;;;;;;5073965;28;20021;-54
2022/11/22 12:57:50;;;;;;;165.68;77.30;;;4.30;99.90;;;;;;5074005;28;20021;-51
2022/11/22 13:00:20;;;;;;;482.80;197.35;;;4.30;99.90;;;;;;5073825;28;20439;-52